createdAt,value
2022-08-09T00:01:55.310Z,77.31
2022-08-09T00:05:03.280Z,76.46
2022-08-09T00:08:32.048Z,76.34
2022-08-09T00:12:03.881Z,76.88
2022-08-09T00:14:58.675Z,77.44
2022-08-09T00:18:11.860Z,77.95
2022-08-09T00:21:14.427Z,78.06
2022-08-09T00:24:19.840Z,78.49
2022-08-09T00:27:22.089Z,78.36
2022-08-09T00:30:26.718Z,78.17
2022-08-09T00:33:48.825Z,77.16
2022-08-09T00:36:52.026Z,77.71
2022-08-09T00:40:14.203Z,78.05
2022-08-09T00:44:15.694Z,77.60
2022-08-09T00:46:56.882Z,76.99
2022-08-09T00:50:01.401Z,76.44
2022-08-09T00:53:10.435Z,76.92
2022-08-09T00:56:15.750Z,76.53
2022-08-09T00:59:20.131Z,76.63
2022-08-09T01:02:47.928Z,76.73
2022-08-09T01:06:17.534Z,75.87
2022-08-09T01:09:37.217Z,75.48
2022-08-09T01:12:55.487Z,76.67
2022-08-09T01:16:01.175Z,77.01
2022-08-09T01:19:39.944Z,77.76
2022-08-09T01:22:57.429Z,77.63
2022-08-09T01:26:14.770Z,78.21
2022-08-09T01:29:19.381Z,78.21
2022-08-09T01:32:33.693Z,78.47
2022-08-09T01:35:45.507Z,80.20
2022-08-09T01:38:50.401Z,80.73
2022-08-09T01:41:59.799Z,80.63
2022-08-09T01:45:04.219Z,80.69
2022-08-09T01:48:10.319Z,80.40
2022-08-09T01:51:23.070Z,80.41
2022-08-09T01:54:41.950Z,81.97
2022-08-09T01:57:50.796Z,83.02
2022-08-09T02:00:57.940Z,82.03
2022-08-09T02:04:01.610Z,81.05
2022-08-09T02:08:35.699Z,80.91
2022-08-09T02:10:51.000Z,78.56
2022-08-09T02:14:02.204Z,79.09
2022-08-09T02:17:29.492Z,83.45
2022-08-09T02:20:46.595Z,85.58
2022-08-09T02:23:54.646Z,85.75
2022-08-09T02:27:00.008Z,86.07
2022-08-09T02:30:03.397Z,85.06
2022-08-09T02:33:07.815Z,82.83
2022-08-09T02:36:22.240Z,81.58
2022-08-09T02:39:41.831Z,86.31
2022-08-09T02:42:51.214Z,87.64
2022-08-09T02:45:54.959Z,89.12
2022-08-09T02:49:03.062Z,87.46
2022-08-09T02:52:09.129Z,87.67
2022-08-09T02:55:19.802Z,86.84
2022-08-09T02:58:36.063Z,86.22
2022-08-09T03:01:43.043Z,86.55
2022-08-09T03:05:05.687Z,85.87
2022-08-09T03:08:10.574Z,86.34
2022-08-09T03:12:06.395Z,87.81
2022-08-09T03:14:42.279Z,87.54
2022-08-09T03:17:45.670Z,85.75
2022-08-09T03:20:56.766Z,85.83
2022-08-09T03:24:04.490Z,84.75
2022-08-09T03:27:09.517Z,86.44
2022-08-09T03:30:29.800Z,87.31
2022-08-09T03:33:53.135Z,88.09
2022-08-09T03:37:00.106Z,89.61
2022-08-09T03:40:13.457Z,89.01
2022-08-09T03:43:18.986Z,89.71
2022-08-09T03:46:27.471Z,89.59
2022-08-09T03:49:35.737Z,91.42
2022-08-09T03:52:43.556Z,88.20
2022-08-09T03:55:49.385Z,88.25
2022-08-09T03:58:51.853Z,87.40
2022-08-09T04:01:59.149Z,88.31
2022-08-09T04:05:06.606Z,88.30
2022-08-09T04:08:16.080Z,87.41
2022-08-09T04:11:19.398Z,86.98
2022-08-09T04:14:53.945Z,86.57
2022-08-09T04:17:47.526Z,86.57
2022-08-09T04:20:51.415Z,85.99
2022-08-09T04:23:57.610Z,88.34
2022-08-09T04:27:00.068Z,80.61
2022-08-09T04:30:02.513Z,72.02
2022-08-09T04:33:05.114Z,70.37
2022-08-09T04:36:10.197Z,69.78
2022-08-09T04:39:13.483Z,69.87
2022-08-09T04:42:16.391Z,69.39
2022-08-09T04:45:20.834Z,68.72
2022-08-09T04:48:33.366Z,70.61
2022-08-09T04:51:36.178Z,68.92
2022-08-09T04:54:39.468Z,68.10
2022-08-09T04:57:58.801Z,69.08
2022-08-09T05:01:04.616Z,67.02
2022-08-09T05:04:18.726Z,65.57
2022-08-09T05:07:21.536Z,65.73
2022-08-09T05:10:25.590Z,65.16
2022-08-09T05:13:28.565Z,62.88
2022-08-09T05:16:31.929Z,61.33
2022-08-09T05:19:45.996Z,62.46
2022-08-09T05:23:55.166Z,61.17
2022-08-09T05:26:25.794Z,58.95
2022-08-09T05:29:35.517Z,56.62
2022-08-09T05:32:38.152Z,55.62
2022-08-09T05:35:46.986Z,54.69
2022-08-09T05:38:52.491Z,53.80
2022-08-09T05:41:54.686Z,51.98
2022-08-09T05:44:57.234Z,51.44
2022-08-09T05:48:01.309Z,50.40
2022-08-09T05:51:30.147Z,49.26
2022-08-09T05:54:26.011Z,49.67
2022-08-09T05:57:51.191Z,47.92
2022-08-09T06:00:50.470Z,47.88
2022-08-09T06:03:54.672Z,47.66
2022-08-09T06:07:00.711Z,50.14
2022-08-09T06:10:04.419Z,48.98
2022-08-09T06:13:12.456Z,50.33
2022-08-09T06:16:22.511Z,47.53
2022-08-09T06:19:24.947Z,48.01
2022-08-09T06:22:30.180Z,48.18
2022-08-09T06:25:32.285Z,47.49
2022-08-09T06:28:37.065Z,46.84
2022-08-09T06:32:08.396Z,46.18
2022-08-09T06:35:01.889Z,45.78
2022-08-09T06:38:08.711Z,43.78
2022-08-09T06:41:18.741Z,43.09
2022-08-09T06:44:21.684Z,43.45
2022-08-09T06:47:24.196Z,43.38
2022-08-09T06:50:26.362Z,42.92
2022-08-09T06:53:38.407Z,42.10
2022-08-09T06:56:41.203Z,42.14
2022-08-09T07:00:52.797Z,42.06
2022-08-09T07:03:11.028Z,42.51
2022-08-09T07:06:13.557Z,42.55
2022-08-09T07:09:57.141Z,42.29
2022-08-09T07:12:42.012Z,40.76
2022-08-09T07:15:53.944Z,39.37
2022-08-09T07:19:07.806Z,41.35
2022-08-09T07:22:10.877Z,38.96
2022-08-09T07:25:15.542Z,40.16
2022-08-09T07:28:19.320Z,39.83
2022-08-09T07:31:28.666Z,39.26
2022-08-09T07:34:40.152Z,38.91
2022-08-09T07:37:45.296Z,39.03
2022-08-09T07:41:00.846Z,37.70
2022-08-09T07:44:11.755Z,38.64
2022-08-09T07:47:16.210Z,39.43
2022-08-09T07:50:34.911Z,39.21
2022-08-09T07:54:04.438Z,40.97
2022-08-09T07:57:01.969Z,39.40
2022-08-09T08:00:08.930Z,39.88
2022-08-09T08:03:14.248Z,41.05
2022-08-09T08:06:21.394Z,39.87
2022-08-09T08:09:42.989Z,39.51
2022-08-09T08:12:54.450Z,39.58
2022-08-09T08:15:56.895Z,39.04
2022-08-09T08:19:02.968Z,39.53
2022-08-09T08:22:06.420Z,37.23
2022-08-09T08:25:13.502Z,37.52
2022-08-09T08:28:18.437Z,39.30
2022-08-09T08:32:02.505Z,39.24
2022-08-09T08:35:00.748Z,36.87
2022-08-09T08:38:09.238Z,36.58
2022-08-09T08:41:14.044Z,36.92
2022-08-09T08:44:27.134Z,36.97
2022-08-09T08:47:31.775Z,36.88
2022-08-09T08:50:41.186Z,37.17
2022-08-09T08:54:03.272Z,36.65
2022-08-09T08:57:11.532Z,36.07
2022-08-09T09:00:20.564Z,36.86
2022-08-09T09:03:37.592Z,36.12
2022-08-09T09:06:42.396Z,36.78
2022-08-09T09:10:01.853Z,36.93
2022-08-09T09:13:09.547Z,34.24
2022-08-09T09:16:12.569Z,34.33
2022-08-09T09:19:37.508Z,33.60
2022-08-09T09:22:51.738Z,32.90
2022-08-09T09:26:04.292Z,31.79
2022-08-09T09:29:16.894Z,30.58
2022-08-09T09:32:37.342Z,28.91
2022-08-09T09:36:11.690Z,28.55
2022-08-09T09:39:56.811Z,27.92
2022-08-09T09:43:13.692Z,29.62
2022-08-09T09:46:52.209Z,29.07
2022-08-09T09:50:16.760Z,27.29
2022-08-09T09:53:57.521Z,24.26
2022-08-09T09:58:01.711Z,22.45
2022-08-09T10:00:26.681Z,21.14
2022-08-09T10:03:56.294Z,19.68
2022-08-09T10:07:03.508Z,17.77
2022-08-09T10:10:12.235Z,17.76
2022-08-09T10:13:24.722Z,18.18
2022-08-09T10:16:57.864Z,16.22
2022-08-09T10:20:27.788Z,16.48
2022-08-09T10:23:36.475Z,16.59
2022-08-09T10:26:43.195Z,18.29
2022-08-09T10:30:27.341Z,19.37
2022-08-09T10:34:04.499Z,18.55
2022-08-09T10:36:35.660Z,18.97
2022-08-09T10:39:40.978Z,20.92
2022-08-09T10:42:52.967Z,21.38
2022-08-09T10:45:58.763Z,23.11
2022-08-09T10:49:49.684Z,21.92
2022-08-09T10:53:23.047Z,20.47
2022-08-09T10:56:31.071Z,20.22
2022-08-09T10:59:55.255Z,19.68
2022-08-09T11:03:17.889Z,17.78
2022-08-09T11:06:20.892Z,17.33
2022-08-09T11:09:37.820Z,14.22
2022-08-09T11:12:40.062Z,11.76
2022-08-09T11:16:04.470Z,13.24
2022-08-09T11:19:09.673Z,14.18
2022-08-09T11:22:18.785Z,14.26
2022-08-09T11:25:44.742Z,16.85
2022-08-09T11:28:56.622Z,20.16
2022-08-09T11:31:59.256Z,19.43
2022-08-09T11:35:08.794Z,20.28
2022-08-09T11:38:18.059Z,22.47
2022-08-09T11:41:22.474Z,24.71
2022-08-09T11:44:44.789Z,27.71
2022-08-09T11:47:53.916Z,30.13
2022-08-09T11:52:54.190Z,29.74
2022-08-09T11:54:27.668Z,29.81
2022-08-09T11:57:47.841Z,30.70
2022-08-09T12:01:09.000Z,31.54
2022-08-09T12:04:22.559Z,31.13
2022-08-09T12:07:34.522Z,31.73
2022-08-09T12:11:02.849Z,33.49
2022-08-09T12:14:12.233Z,32.38
